Time;durP1;ratioP1;P1;durP2;ratioP2;P2;SDS_P1;SDS_P2;PMS_P1;PMS_P2;Temp;Humidity;BMP_temperature;BMP_pressure;BME280_temperature;BME280_humidity;BME280_pressure;Samples;Min_cycle;Max_cycle;Signal;HPM_P1;HPM_P2
2021/08/01 00:01:07;;;;;;;3.08;1.90;;;23.60;71.50;;;;;;5002867;28;20655;-75
2021/08/01 00:03:33;;;;;;;4.35;1.75;;;23.60;71.60;;;;;;5002085;28;20966;-74
2021/08/01 00:05:59;;;;;;;1.95;1.90;;;23.60;71.90;;;;;;5009180;28;20291;-75
2021/08/01 00:08:25;;;;;;;2.78;2.47;;;23.60;72.00;;;;;;5004371;28;20215;-75
2021/08/01 00:10:55;;;;;;;1.85;1.85;;;23.50;72.30;;;;;;5001893;28;20662;-75
2021/08/01 00:13:20;;;;;;;2.60;2.40;;;23.50;72.50;;;;;;5000763;28;20213;-74
2021/08/01 00:15:46;;;;;;;4.85;2.70;;;23.50;73.00;;;;;;5006108;28;20216;-74
2021/08/01 00:18:12;;;;;;;2.40;2.30;;;23.50;73.90;;;;;;5004924;28;20195;-74
2021/08/01 00:20:38;;;;;;;2.40;2.22;;;23.40;74.30;;;;;;5007497;28;20689;-76
2021/08/01 00:23:03;;;;;;;2.17;2.13;;;23.40;74.90;;;;;;5007200;28;20181;-75
2021/08/01 00:25:29;;;;;;;2.83;2.67;;;23.30;75.60;;;;;;5009370;28;20223;-75
2021/08/01 00:27:55;;;;;;;3.05;2.80;;;23.20;76.40;;;;;;5008316;28;20193;-75
2021/08/01 00:30:21;;;;;;;3.55;2.92;;;23.20;76.50;;;;;;5006401;28;20582;-75
2021/08/01 00:32:46;;;;;;;3.17;2.97;;;23.10;77.70;;;;;;4998742;28;20181;-75
2021/08/01 00:35:12;;;;;;;4.22;3.83;;;23.10;78.00;;;;;;5007319;28;20217;-75
2021/08/01 00:37:38;;;;;;;4.00;3.65;;;23.00;79.60;;;;;;4999431;28;20190;-75
2021/08/01 00:40:07;;;;;;;5.13;4.50;;;22.90;79.40;;;;;;5006122;28;20916;-75
2021/08/01 00:42:34;;;;;;;3.92;3.72;;;22.90;79.90;;;;;;5003216;28;20738;-75
2021/08/01 00:45:00;;;;;;;6.45;4.20;;;22.80;80.00;;;;;;5008031;28;20275;-75
2021/08/01 00:47:25;;;;;;;4.50;4.22;;;22.70;80.20;;;;;;5007692;28;20816;-75
2021/08/01 00:49:51;;;;;;;4.30;4.00;;;22.70;80.90;;;;;;5006629;28;20176;-74
2021/08/01 00:52:17;;;;;;;6.97;4.95;;;22.60;81.50;;;;;;4999227;28;20229;-75
2021/08/01 00:54:43;;;;;;;4.75;4.43;;;22.60;81.40;;;;;;5006155;28;20213;-73
2021/08/01 00:57:08;;;;;;;5.15;4.82;;;22.50;81.90;;;;;;5005014;28;20192;-75
2021/08/01 00:59:37;;;;;;;5.70;5.20;;;22.40;82.20;;;;;;5006801;28;20184;-77
2021/08/01 01:02:07;;;;;;;5.93;5.15;;;22.40;82.50;;;;;;5002461;28;20185;-77
2021/08/01 01:05:15;;;;;;;5.95;5.35;;;22.30;82.90;;;;;;5000133;28;20180;-77
2021/08/01 01:07:53;;;;;;;5.80;5.32;;;22.20;83.90;;;;;;4985238;28;20193;-76
2021/08/01 01:10:31;;;;;;;7.22;5.60;;;22.10;83.30;;;;;;4986846;28;20609;-76
2021/08/01 01:13:15;;;;;;;7.68;5.22;;;22.00;83.70;;;;;;4980141;28;20190;-77
2021/08/01 01:15:48;;;;;;;7.78;5.82;;;22.00;83.90;;;;;;4982135;28;20197;-77
2021/08/01 01:18:27;;;;;;;5.70;5.28;;;21.90;84.60;;;;;;4985024;28;20193;-77
2021/08/01 01:21:19;;;;;;;5.90;5.30;;;21.80;84.30;;;;;;4979251;28;20217;-76
2021/08/01 01:23:59;;;;;;;6.50;5.95;;;21.80;84.40;;;;;;4983172;28;20186;-76
2021/08/01 01:26:38;;;;;;;7.63;5.60;;;21.70;85.10;;;;;;4981414;28;20233;-75
2021/08/01 01:29:39;;;;;;;9.50;5.60;;;21.60;85.90;;;;;;4985797;28;20189;-76
2021/08/01 01:32:10;;;;;;;6.15;5.50;;;21.60;85.80;;;;;;4977397;28;20194;-75
2021/08/01 01:34:47;;;;;;;8.15;6.30;;;21.60;86.10;;;;;;4981025;28;20257;-75
2021/08/01 01:37:16;;;;;;;6.20;5.55;;;21.50;85.60;;;;;;4984923;28;20259;-76
2021/08/01 01:39:44;;;;;;;8.43;6.70;;;21.40;86.00;;;;;;4969250;28;20935;-76
2021/08/01 01:42:13;;;;;;;8.57;6.03;;;21.40;86.30;;;;;;4984895;28;20192;-76
2021/08/01 01:44:41;;;;;;;7.93;6.25;;;21.40;86.40;;;;;;4988398;28;20334;-76
2021/08/01 01:47:07;;;;;;;6.90;6.22;;;21.30;86.90;;;;;;5005791;28;20189;-76
2021/08/01 01:49:36;;;;;;;7.85;6.13;;;21.30;86.70;;;;;;5003728;28;20191;-75
2021/08/01 01:52:06;;;;;;;7.75;6.35;;;21.20;86.90;;;;;;5003299;28;20192;-75
2021/08/01 01:54:35;;;;;;;7.38;6.13;;;21.20;87.20;;;;;;5000982;28;20266;-76
2021/08/01 01:57:01;;;;;;;8.95;6.15;;;21.10;87.00;;;;;;5005575;28;20247;-76
2021/08/01 01:59:27;;;;;;;7.63;5.88;;;21.10;87.50;;;;;;5005704;28;20678;-76
2021/08/01 02:01:53;;;;;;;7.00;6.30;;;21.10;87.90;;;;;;5003870;28;20188;-76
2021/08/01 02:04:18;;;;;;;10.70;6.40;;;21.00;88.10;;;;;;5001471;28;20197;-75
2021/08/01 02:06:44;;;;;;;7.38;6.65;;;21.00;88.50;;;;;;4996594;28;20192;-76
2021/08/01 02:09:24;;;;;;;9.80;6.55;;;21.00;88.80;;;;;;5007065;28;20212;-76
2021/08/01 02:12:05;;;;;;;8.52;6.43;;;20.90;88.00;;;;;;5002390;28;20195;-76
2021/08/01 02:14:39;;;;;;;9.55;6.50;;;20.90;88.10;;;;;;4998310;28;20197;-76
2021/08/01 02:17:10;;;;;;;12.07;6.80;;;20.90;88.40;;;;;;5005958;28;20222;-75
2021/08/01 02:19:39;;;;;;;7.65;6.70;;;20.80;88.40;;;;;;5006560;28;20209;-75
2021/08/01 02:22:06;;;;;;;6.93;6.32;;;20.80;88.60;;;;;;5002157;28;20189;-75
2021/08/01 02:24:33;;;;;;;10.90;7.13;;;20.80;88.90;;;;;;5006061;28;20200;-76
2021/08/01 02:26:59;;;;;;;9.65;6.80;;;20.70;88.90;;;;;;4997904;28;20276;-75
2021/08/01 02:29:27;;;;;;;8.43;6.75;;;20.70;88.90;;;;;;5005365;28;20268;-76
2021/08/01 02:31:54;;;;;;;14.07;7.40;;;20.70;88.70;;;;;;5005268;28;20172;-77
2021/08/01 02:34:21;;;;;;;6.10;5.60;;;20.70;88.80;;;;;;5004672;28;20295;-75
2021/08/01 02:36:47;;;;;;;8.35;6.72;;;20.70;88.80;;;;;;5005994;28;20260;-75
2021/08/01 02:39:14;;;;;;;10.38;7.70;;;20.70;89.00;;;;;;5006934;28;21005;-75
2021/08/01 02:41:43;;;;;;;6.72;6.10;;;20.70;89.10;;;;;;4999089;28;20189;-75
2021/08/01 02:44:31;;;;;;;6.90;5.97;;;20.70;88.80;;;;;;5006306;28;20177;-75
2021/08/01 02:46:58;;;;;;;7.90;5.78;;;20.70;89.20;;;;;;5014851;28;20204;-75
2021/08/01 02:49:27;;;;;;;8.48;5.68;;;20.70;89.30;;;;;;5004399;28;20259;-75
2021/08/01 02:51:55;;;;;;;7.15;6.45;;;20.60;89.00;;;;;;4999025;28;20204;-76
2021/08/01 02:54:22;;;;;;;12.80;6.47;;;20.60;89.20;;;;;;5005390;28;20181;-76
2021/08/01 02:56:50;;;;;;;6.53;5.97;;;20.60;89.30;;;;;;5003451;28;20189;-76
2021/08/01 02:59:18;;;;;;;6.68;5.97;;;20.60;89.30;;;;;;5006565;28;20188;-76
2021/08/01 03:01:45;;;;;;;12.70;6.22;;;20.60;89.00;;;;;;5005907;28;20614;-76
2021/08/01 03:04:15;;;;;;;6.03;5.55;;;20.50;89.20;;;;;;5001049;28;20184;-76
2021/08/01 03:06:42;;;;;;;6.88;6.07;;;20.50;89.00;;;;;;4998027;28;20216;-76
2021/08/01 03:09:09;;;;;;;5.97;5.40;;;20.50;89.30;;;;;;4997199;28;20262;-76
2021/08/01 03:11:35;;;;;;;6.10;5.50;;;20.50;89.10;;;;;;5007228;28;20250;-76
2021/08/01 03:14:02;;;;;;;5.72;5.18;;;20.50;89.20;;;;;;5006123;28;20812;-76
2021/08/01 03:16:28;;;;;;;9.10;5.32;;;20.40;89.30;;;;;;4997814;28;20201;-76
2021/08/01 03:18:53;;;;;;;5.97;5.05;;;20.40;89.00;;;;;;5006770;28;20231;-76
2021/08/01 03:21:19;;;;;;;6.38;5.50;;;20.40;89.00;;;;;;5004291;28;20186;-76
2021/08/01 03:23:45;;;;;;;7.82;5.90;;;20.40;89.10;;;;;;5005889;28;20809;-76
2021/08/01 03:26:10;;;;;;;10.95;5.32;;;20.40;89.20;;;;;;5006724;28;20221;-76
2021/08/01 03:28:36;;;;;;;5.78;5.32;;;20.40;89.40;;;;;;5007322;28;20177;-76
2021/08/01 03:31:02;;;;;;;5.75;5.35;;;20.40;89.40;;;;;;4999144;28;20209;-76
2021/08/01 03:33:27;;;;;;;9.98;5.95;;;20.40;89.50;;;;;;4998876;28;20196;-76
2021/08/01 03:35:53;;;;;;;6.00;5.40;;;20.40;89.40;;;;;;4999290;28;20255;-76
2021/08/01 03:38:19;;;;;;;5.45;4.53;;;20.40;89.30;;;;;;5008870;28;20181;-75
2021/08/01 03:40:44;;;;;;;6.40;5.13;;;20.40;89.30;;;;;;4999513;28;20280;-75
2021/08/01 03:43:10;;;;;;;5.93;5.20;;;20.40;89.30;;;;;;4998469;28;20200;-76
2021/08/01 03:45:36;;;;;;;8.90;5.43;;;20.40;89.40;;;;;;5009487;28;20279;-75
2021/08/01 03:48:01;;;;;;;6.60;6.00;;;20.40;89.50;;;;;;5010076;28;20580;-75
2021/08/01 03:50:27;;;;;;;9.38;5.78;;;20.40;89.40;;;;;;5001648;28;20685;-76
2021/08/01 03:52:53;;;;;;;7.35;5.88;;;20.40;89.50;;;;;;5006224;28;20189;-75
2021/08/01 03:55:18;;;;;;;8.00;6.47;;;20.40;89.60;;;;;;5007022;28;20189;-75
2021/08/01 03:57:44;;;;;;;10.38;6.25;;;20.50;89.80;;;;;;5006602;28;20196;-76
2021/08/01 04:00:10;;;;;;;6.13;5.60;;;20.50;90.00;;;;;;5003524;28;20284;-76
2021/08/01 04:02:37;;;;;;;8.85;6.00;;;20.50;89.90;;;;;;5004345;28;20181;-76
2021/08/01 04:05:04;;;;;;;7.05;5.72;;;20.50;89.80;;;;;;5004684;28;20545;-75
2021/08/01 04:07:30;;;;;;;9.18;5.75;;;20.50;89.70;;;;;;5007176;28;20190;-76
2021/08/01 04:09:56;;;;;;;7.35;6.35;;;20.60;89.80;;;;;;5010048;28;20192;-76
2021/08/01 04:12:22;;;;;;;7.45;6.00;;;20.60;89.80;;;;;;5001011;28;20351;-76
2021/08/01 04:14:48;;;;;;;7.15;6.45;;;20.60;89.80;;;;;;5000360;28;20197;-76
2021/08/01 04:17:18;;;;;;;8.48;6.25;;;20.60;89.80;;;;;;5000427;28;20197;-76
2021/08/01 04:19:46;;;;;;;6.80;6.05;;;20.60;89.90;;;;;;5005637;28;20186;-75
2021/08/01 04:22:18;;;;;;;8.25;6.88;;;20.70;89.60;;;;;;5009452;28;20177;-75
2021/08/01 04:24:44;;;;;;;11.95;6.45;;;20.70;89.60;;;;;;4995130;28;20204;-76
2021/08/01 04:27:10;;;;;;;7.43;6.75;;;20.70;89.60;;;;;;5001805;28;20632;-75
2021/08/01 04:29:35;;;;;;;6.95;6.22;;;20.70;89.60;;;;;;5006599;28;20192;-76
2021/08/01 04:32:01;;;;;;;10.40;6.60;;;20.80;89.40;;;;;;4999204;28;20204;-75
2021/08/01 04:34:27;;;;;;;8.13;6.35;;;20.80;89.30;;;;;;5008375;28;20181;-75
2021/08/01 04:36:53;;;;;;;13.93;6.43;;;20.80;89.30;;;;;;5007873;28;20177;-76
2021/08/01 04:39:19;;;;;;;7.28;6.53;;;20.80;89.40;;;;;;5001036;28;20634;-76
2021/08/01 04:41:44;;;;;;;6.95;6.25;;;20.80;89.40;;;;;;5003912;28;20267;-76
2021/08/01 04:44:10;;;;;;;9.55;6.40;;;20.90;89.20;;;;;;5006112;28;20173;-75
2021/08/01 04:46:37;;;;;;;8.95;6.75;;;20.90;89.10;;;;;;4995540;28;20228;-76
2021/08/01 04:49:02;;;;;;;6.97;6.28;;;20.90;89.00;;;;;;5001177;28;20186;-76
2021/08/01 04:51:28;;;;;;;7.35;5.65;;;21.00;89.50;;;;;;5001245;28;20279;-77
2021/08/01 04:53:54;;;;;;;7.50;5.93;;;21.00;88.80;;;;;;5003804;28;20980;-76
2021/08/01 04:56:20;;;;;;;6.65;5.32;;;21.00;88.50;;;;;;5008860;28;20236;-72
2021/08/01 04:58:45;;;;;;;6.07;5.57;;;21.10;88.30;;;;;;5003241;28;20248;-72
2021/08/01 05:01:17;;;;;;;6.53;5.93;;;21.10;88.00;;;;;;5003141;28;20215;-73
2021/08/01 05:03:43;;;;;;;7.30;6.30;;;21.20;87.40;;;;;;5002962;28;20186;-72
2021/08/01 05:06:10;;;;;;;8.32;5.82;;;21.20;87.80;;;;;;5002715;28;21032;-73
2021/08/01 05:08:36;;;;;;;8.25;5.88;;;21.30;87.70;;;;;;5007197;28;20292;-73
2021/08/01 05:11:02;;;;;;;6.45;5.85;;;21.30;87.90;;;;;;5007196;28;20568;-73
2021/08/01 05:13:27;;;;;;;6.57;5.97;;;21.40;87.30;;;;;;5002871;28;20185;-73
2021/08/01 05:15:53;;;;;;;7.00;5.78;;;21.40;87.40;;;;;;5008396;28;20177;-72
2021/08/01 05:18:20;;;;;;;8.13;5.70;;;21.50;87.40;;;;;;5007935;28;20698;-72
2021/08/01 05:20:46;;;;;;;10.40;5.70;;;21.50;87.30;;;;;;5004558;28;20173;-74
2021/08/01 05:23:12;;;;;;;6.95;6.22;;;21.60;87.00;;;;;;4997200;28;20193;-72
2021/08/01 05:25:38;;;;;;;6.38;5.85;;;21.60;86.80;;;;;;5000507;28;21004;-72
2021/08/01 05:28:04;;;;;;;8.43;6.40;;;21.70;86.80;;;;;;5006994;28;20270;-72
2021/08/01 05:30:30;;;;;;;8.43;6.43;;;21.70;86.80;;;;;;5001006;28;20185;-72
2021/08/01 05:32:56;;;;;;;8.02;6.20;;;21.80;87.10;;;;;;5002039;28;20186;-72
2021/08/01 05:35:21;;;;;;;6.57;6.05;;;21.90;87.20;;;;;;4998467;28;20192;-71
2021/08/01 05:37:47;;;;;;;7.72;6.97;;;21.90;87.30;;;;;;5005385;28;20185;-71
2021/08/01 05:40:13;;;;;;;10.65;7.97;;;22.00;87.60;;;;;;5003102;28;20185;-72
2021/08/01 05:42:39;;;;;;;11.75;8.93;;;22.00;87.50;;;;;;5004814;28;20173;-72
2021/08/01 05:45:05;;;;;;;9.45;7.18;;;22.10;87.30;;;;;;5001798;28;20224;-72
2021/08/01 05:47:32;;;;;;;12.25;8.38;;;22.20;87.20;;;;;;4999187;28;20173;-73
2021/08/01 05:49:58;;;;;;;10.23;8.18;;;22.20;87.10;;;;;;5003596;28;21063;-73
2021/08/01 05:52:23;;;;;;;15.40;9.05;;;22.30;87.20;;;;;;4996704;28;20264;-72
2021/08/01 05:54:53;;;;;;;12.10;8.40;;;22.30;87.00;;;;;;4999069;28;20266;-72
2021/08/01 05:57:19;;;;;;;10.98;7.30;;;22.30;86.20;;;;;;5007561;28;20176;-70
2021/08/01 05:59:44;;;;;;;7.78;7.10;;;22.40;86.50;;;;;;5006865;28;20949;-72
2021/08/01 06:02:13;;;;;;;11.05;7.35;;;22.50;86.70;;;;;;5003786;28;20181;-72
2021/08/01 06:04:39;;;;;;;7.50;6.57;;;22.50;86.00;;;;;;5007431;28;20181;-72
2021/08/01 06:07:08;;;;;;;9.88;6.78;;;22.60;85.70;;;;;;5007310;28;20667;-72
2021/08/01 06:09:34;;;;;;;8.75;6.65;;;22.60;85.30;;;;;;4999546;28;20192;-72
2021/08/01 06:12:00;;;;;;;8.75;6.45;;;22.70;85.30;;;;;;5003686;28;20910;-73
2021/08/01 06:14:26;;;;;;;7.45;6.57;;;22.70;85.00;;;;;;5003503;28;20184;-73
2021/08/01 06:16:51;;;;;;;9.00;6.20;;;22.80;84.60;;;;;;5006054;28;20173;-73
2021/08/01 06:19:17;;;;;;;10.23;6.03;;;22.80;84.40;;;;;;4999658;28;20177;-73
2021/08/01 06:21:43;;;;;;;7.28;6.57;;;22.90;84.20;;;;;;5000815;28;20185;-73
2021/08/01 06:24:08;;;;;;;13.25;6.90;;;22.90;84.20;;;;;;5003039;28;20185;-74
2021/08/01 06:26:34;;;;;;;7.53;6.68;;;23.00;84.10;;;;;;5003005;28;20644;-74
2021/08/01 06:29:00;;;;;;;10.18;6.82;;;23.10;85.20;;;;;;5006821;28;20181;-72
2021/08/01 06:31:26;;;;;;;6.93;6.40;;;23.10;84.00;;;;;;5007045;28;20260;-72
2021/08/01 06:33:53;;;;;;;12.55;6.88;;;23.20;84.10;;;;;;4998013;28;20181;-72
2021/08/01 06:36:18;;;;;;;10.88;7.25;;;23.30;83.90;;;;;;5007496;28;20188;-72
2021/08/01 06:38:45;;;;;;;8.68;7.72;;;23.30;84.60;;;;;;4994688;28;20184;-71
2021/08/01 06:41:10;;;;;;;8.73;7.18;;;23.40;83.30;;;;;;5004660;28;20181;-76
2021/08/01 06:43:36;;;;;;;12.43;7.30;;;23.50;84.00;;;;;;5006889;28;20179;-73
2021/08/01 06:46:02;;;;;;;7.43;6.40;;;23.60;83.50;;;;;;5007175;28;20211;-73
2021/08/01 06:48:28;;;;;;;11.15;7.55;;;23.60;83.50;;;;;;5006843;28;20184;-73
2021/08/01 06:50:54;;;;;;;15.77;7.10;;;23.70;83.30;;;;;;5005002;28;20196;-73
2021/08/01 06:53:20;;;;;;;7.35;6.78;;;23.80;83.40;;;;;;5006780;28;20610;-73
2021/08/01 06:55:46;;;;;;;7.53;6.93;;;23.80;82.40;;;;;;4999865;28;20193;-73
2021/08/01 06:58:11;;;;;;;10.18;7.03;;;23.90;82.10;;;;;;5000422;28;20196;-73
2021/08/01 07:00:37;;;;;;;11.05;7.65;;;23.90;81.80;;;;;;5007262;28;20256;-73
2021/08/01 07:03:03;;;;;;;9.55;6.72;;;24.00;81.40;;;;;;5007045;28;20689;-73
2021/08/01 07:05:30;;;;;;;6.65;6.05;;;24.00;80.90;;;;;;5005120;28;20208;-73
2021/08/01 07:07:56;;;;;;;7.95;6.93;;;24.10;81.00;;;;;;5006912;28;20637;-73
2021/08/01 07:10:23;;;;;;;6.63;6.13;;;24.10;80.10;;;;;;5005307;28;20177;-73
2021/08/01 07:12:49;;;;;;;8.23;6.28;;;24.20;80.50;;;;;;5010259;28;20197;-73
2021/08/01 07:15:17;;;;;;;9.40;6.65;;;24.30;80.80;;;;;;5006628;28;20185;-73
2021/08/01 07:17:44;;;;;;;7.32;6.75;;;24.30;80.80;;;;;;5004003;28;20202;-73
2021/08/01 07:20:13;;;;;;;6.88;6.05;;;24.40;80.80;;;;;;5010506;28;20189;-73
2021/08/01 07:22:39;;;;;;;8.07;6.10;;;24.50;80.20;;;;;;5005160;28;20236;-73
2021/08/01 07:25:06;;;;;;;7.72;7.03;;;24.50;80.20;;;;;;5006088;28;20217;-72
2021/08/01 07:27:32;;;;;;;8.93;6.70;;;24.60;80.20;;;;;;5009189;28;20231;-72
2021/08/01 07:29:58;;;;;;;7.15;6.40;;;24.70;80.10;;;;;;4999445;28;20177;-72
2021/08/01 07:32:23;;;;;;;9.00;7.22;;;24.70;80.20;;;;;;5006082;28;20181;-72
2021/08/01 07:34:49;;;;;;;6.93;6.45;;;24.80;80.10;;;;;;5010668;28;20180;-72
2021/08/01 07:37:16;;;;;;;11.93;7.28;;;24.80;80.20;;;;;;5008828;28;20184;-72
2021/08/01 07:39:42;;;;;;;9.85;7.32;;;24.90;80.70;;;;;;5010223;28;20187;-71
2021/08/01 07:42:08;;;;;;;8.13;6.70;;;25.00;79.90;;;;;;5008555;28;20667;-74
2021/08/01 07:44:45;;;;;;;10.43;6.25;;;25.10;79.50;;;;;;5000434;28;20213;-72
2021/08/01 07:47:13;;;;;;;9.98;7.13;;;25.20;79.30;;;;;;5004075;28;20856;-71
2021/08/01 07:49:39;;;;;;;9.52;6.45;;;25.30;78.80;;;;;;5010265;28;20200;-71
2021/08/01 07:52:05;;;;;;;9.73;7.03;;;25.30;78.70;;;;;;5010548;28;20193;-71
2021/08/01 07:54:30;;;;;;;7.28;6.57;;;25.40;78.40;;;;;;5010517;28;20238;-72
2021/08/01 07:56:56;;;;;;;8.77;6.45;;;25.50;77.80;;;;;;5008954;28;20181;-71
2021/08/01 07:59:22;;;;;;;8.43;6.70;;;25.50;78.10;;;;;;4995480;28;20188;-71
2021/08/01 08:01:47;;;;;;;8.07;5.97;;;25.60;78.20;;;;;;5004335;28;20572;-73
2021/08/01 08:04:13;;;;;;;7.60;6.18;;;25.70;77.90;;;;;;5009544;28;20184;-71
2021/08/01 08:06:39;;;;;;;7.03;6.43;;;25.70;77.50;;;;;;5009786;28;20216;-71
2021/08/01 08:09:05;;;;;;;7.55;6.85;;;25.80;76.80;;;;;;5009659;28;20181;-68
2021/08/01 08:11:31;;;;;;;7.22;6.63;;;25.90;75.80;;;;;;5023486;28;20182;-70
2021/08/01 08:13:57;;;;;;;7.78;6.20;;;25.90;76.00;;;;;;5009893;28;20282;-72
2021/08/01 08:16:23;;;;;;;6.55;6.05;;;26.00;76.30;;;;;;5010104;28;20188;-71
2021/08/01 08:18:50;;;;;;;7.78;6.55;;;26.00;76.40;;;;;;5009789;28;20219;-71
2021/08/01 08:21:17;;;;;;;9.10;6.78;;;26.10;76.30;;;;;;5008592;28;20181;-71
2021/08/01 08:23:43;;;;;;;6.95;5.85;;;26.20;75.70;;;;;;5007842;28;20260;-71
2021/08/01 08:26:09;;;;;;;7.97;5.82;;;26.30;76.00;;;;;;5009663;28;20705;-73
2021/08/01 08:28:35;;;;;;;12.98;6.80;;;26.40;76.10;;;;;;5008227;28;20169;-71
2021/08/01 08:31:00;;;;;;;6.22;5.75;;;26.50;74.60;;;;;;5009013;28;20656;-71
2021/08/01 08:33:26;;;;;;;6.50;6.03;;;26.60;75.00;;;;;;5009334;28;20180;-72
2021/08/01 08:35:52;;;;;;;6.40;5.90;;;26.70;73.90;;;;;;5009259;28;20196;-72
2021/08/01 08:38:18;;;;;;;6.40;6.00;;;26.80;73.90;;;;;;5000627;28;20186;-71
2021/08/01 08:40:44;;;;;;;8.27;6.18;;;26.90;74.30;;;;;;5007639;28;20247;-71
2021/08/01 08:43:09;;;;;;;6.20;5.50;;;27.00;73.70;;;;;;5006874;28;20212;-72
2021/08/01 08:45:37;;;;;;;6.30;5.75;;;27.10;73.30;;;;;;5009335;28;20217;-72
2021/08/01 08:48:05;;;;;;;5.32;4.88;;;27.20;73.00;;;;;;5008953;28;20584;-72
2021/08/01 08:50:33;;;;;;;6.43;5.85;;;27.30;72.90;;;;;;5009054;28;20196;-71
2021/08/01 08:53:04;;;;;;;6.55;5.63;;;27.40;72.40;;;;;;5007452;28;20274;-71
2021/08/01 08:55:36;;;;;;;6.95;6.07;;;27.50;71.90;;;;;;5008649;28;20283;-72
2021/08/01 08:58:03;;;;;;;6.15;5.55;;;27.60;72.20;;;;;;5002020;28;20188;-71
2021/08/01 09:00:30;;;;;;;6.55;5.68;;;27.70;72.00;;;;;;4997583;28;20745;-71
2021/08/01 09:02:56;;;;;;;5.85;5.55;;;27.80;72.20;;;;;;5005005;28;20247;-71
2021/08/01 09:05:22;;;;;;;6.43;5.75;;;27.90;72.00;;;;;;5002014;28;20212;-72
2021/08/01 09:07:48;;;;;;;6.88;5.82;;;28.10;72.00;;;;;;5007830;28;20181;-71
2021/08/01 09:10:17;;;;;;;6.93;6.05;;;28.20;71.70;;;;;;5005818;28;20211;-70
2021/08/01 09:12:47;;;;;;;10.93;6.38;;;28.40;71.80;;;;;;5005099;28;20181;-71
2021/08/01 09:15:23;;;;;;;6.43;5.97;;;28.50;72.00;;;;;;5002734;28;20191;-71
2021/08/01 09:17:50;;;;;;;8.75;5.95;;;28.70;71.80;;;;;;5008125;28;20307;-71
2021/08/01 09:20:20;;;;;;;7.22;6.55;;;28.80;71.50;;;;;;5003124;28;20978;-72
2021/08/01 09:23:01;;;;;;;7.28;6.15;;;28.90;69.50;;;;;;5005161;28;20236;-71
2021/08/01 09:25:29;;;;;;;6.95;6.38;;;29.10;70.20;;;;;;5007944;28;20610;-72
2021/08/01 09:28:11;;;;;;;9.30;6.15;;;29.20;69.30;;;;;;5005928;28;20272;-73
2021/08/01 09:30:56;;;;;;;7.20;6.60;;;29.30;70.00;;;;;;5004192;28;20184;-72
2021/08/01 09:33:42;;;;;;;7.30;6.78;;;29.50;70.20;;;;;;5001799;28;20177;-72
2021/08/01 09:36:25;;;;;;;8.18;5.78;;;29.70;68.70;;;;;;5008347;28;20177;-73
2021/08/01 09:39:00;;;;;;;8.07;6.80;;;29.90;69.20;;;;;;5001288;28;20180;-73
2021/08/01 09:41:31;;;;;;;10.55;7.22;;;30.10;68.90;;;;;;4995638;28;20192;-72
2021/08/01 09:44:00;;;;;;;8.13;6.68;;;30.30;68.00;;;;;;5007008;28;20229;-72
2021/08/01 09:46:39;;;;;;;6.60;6.13;;;30.60;67.30;;;;;;5008014;28;20299;-72
2021/08/01 09:49:12;;;;;;;10.23;6.90;;;30.80;67.00;;;;;;5008039;28;20514;-72
2021/08/01 09:51:42;;;;;;;8.50;6.55;;;31.10;66.30;;;;;;5007647;28;20207;-72
2021/08/01 09:54:10;;;;;;;8.65;6.13;;;31.40;65.70;;;;;;5007851;28;20219;-72
2021/08/01 09:56:36;;;;;;;8.05;6.32;;;31.70;65.30;;;;;;4990490;28;20213;-72
2021/08/01 09:59:02;;;;;;;6.88;6.25;;;32.00;65.00;;;;;;5000713;28;20173;-72
2021/08/01 10:01:28;;;;;;;10.05;6.20;;;32.40;63.80;;;;;;5006328;28;20192;-72
2021/08/01 10:03:54;;;;;;;7.22;6.63;;;32.80;62.60;;;;;;5001375;28;20185;-72
2021/08/01 10:06:22;;;;;;;13.27;6.70;;;33.20;61.30;;;;;;5001230;28;20713;-72
2021/08/01 10:08:48;;;;;;;6.28;5.78;;;33.70;60.90;;;;;;5002797;28;20256;-72
2021/08/01 10:11:19;;;;;;;8.82;6.05;;;34.20;60.70;;;;;;5002476;28;20192;-72
2021/08/01 10:13:47;;;;;;;7.82;7.15;;;34.80;61.10;;;;;;5003191;28;20252;-72
2021/08/01 10:16:13;;;;;;;7.55;6.95;;;35.30;59.10;;;;;;5005773;28;20192;-72
2021/08/01 10:18:42;;;;;;;7.65;6.95;;;35.90;58.80;;;;;;5003594;28;20184;-72
2021/08/01 10:21:09;;;;;;;10.07;7.50;;;36.40;57.40;;;;;;5006491;28;20200;-72
2021/08/01 10:23:46;;;;;;;8.40;7.60;;;37.00;57.60;;;;;;5006857;28;20585;-72
2021/08/01 10:26:13;;;;;;;9.93;7.63;;;37.70;56.30;;;;;;5007061;28;20221;-72
2021/08/01 10:28:50;;;;;;;8.93;8.20;;;38.30;55.30;;;;;;5004304;28;20189;-72
2021/08/01 10:31:18;;;;;;;8.48;7.63;;;39.00;55.20;;;;;;5005154;28;20184;-72
2021/08/01 10:34:11;;;;;;;8.25;7.40;;;39.70;54.30;;;;;;5005738;28;20232;-72
2021/08/01 10:36:39;;;;;;;8.27;6.07;;;40.40;52.30;;;;;;4982488;28;20196;-71
2021/08/01 10:39:12;;;;;;;7.93;7.30;;;40.90;51.10;;;;;;4982126;28;20227;-72
2021/08/01 10:41:39;;;;;;;8.25;7.55;;;41.50;52.50;;;;;;4967334;28;20197;-71
2021/08/01 10:44:09;;;;;;;9.10;7.75;;;42.00;52.10;;;;;;4980264;28;20228;-71
2021/08/01 10:46:37;;;;;;;8.73;7.78;;;42.40;52.00;;;;;;4983549;28;20644;-71
2021/08/01 10:49:05;;;;;;;8.52;6.95;;;42.60;50.60;;;;;;4985413;28;20189;-71
2021/08/01 10:51:31;;;;;;;7.43;6.65;;;42.80;51.00;;;;;;4986153;28;20232;-72
2021/08/01 10:54:35;;;;;;;7.30;6.70;;;43.20;51.50;;;;;;4985097;28;20259;-72
2021/08/01 10:57:16;;;;;;;9.13;6.97;;;43.50;47.90;;;;;;4953323;28;20190;-72
2021/08/01 10:59:44;;;;;;;8.75;6.82;;;43.70;47.00;;;;;;4953568;28;20676;-72
2021/08/01 11:02:19;;;;;;;6.90;6.35;;;43.90;46.20;;;;;;4952909;28;20197;-72
2021/08/01 11:04:46;;;;;;;7.03;6.30;;;43.70;48.50;;;;;;4949324;28;20189;-73
2021/08/01 11:07:25;;;;;;;7.03;6.35;;;43.80;47.50;;;;;;4949963;28;20233;-74
2021/08/01 11:10:22;;;;;;;6.47;6.07;;;44.10;50.30;;;;;;4959662;28;20665;-74
2021/08/01 11:12:48;;;;;;;6.10;5.63;;;44.30;46.50;;;;;;4928129;29;20200;-73
2021/08/01 11:15:15;;;;;;;6.18;5.68;;;44.60;49.60;;;;;;4910838;29;20196;-73
2021/08/01 11:17:46;;;;;;;6.68;6.15;;;44.80;48.80;;;;;;4915089;29;20603;-73
2021/08/01 11:20:23;;;;;;;7.45;6.15;;;45.00;45.10;;;;;;4911565;29;20180;-74
2021/08/01 11:22:50;;;;;;;7.03;6.20;;;45.20;46.20;;;;;;4908667;29;20195;-75
2021/08/01 11:25:19;;;;;;;6.50;6.10;;;45.20;46.30;;;;;;4912779;29;20227;-74
2021/08/01 11:28:09;;;;;;;5.72;5.43;;;45.20;45.40;;;;;;4922500;29;20277;-74
2021/08/01 11:33:38;;;;;;;7.03;6.53;;;45.50;44.00;;;;;;4949382;28;20190;-74
2021/08/01 11:36:26;;;;;;;6.40;5.78;;;45.50;44.30;;;;;;4928020;28;20197;-73
2021/08/01 11:38:51;;;;;;;7.25;5.88;;;45.50;43.10;;;;;;4947538;28;20247;-73
2021/08/01 11:41:29;;;;;;;6.25;5.50;;;45.40;47.00;;;;;;4947662;28;20269;-74
2021/08/01 11:44:16;;;;;;;6.45;5.88;;;45.30;44.90;;;;;;4947398;28;20208;-74
2021/08/01 11:47:03;;;;;;;6.65;5.57;;;45.30;46.30;;;;;;4938784;29;20225;-74
2021/08/01 11:49:30;;;;;;;6.40;5.88;;;45.50;43.00;;;;;;4986148;28;20192;-74
2021/08/01 11:51:58;;;;;;;7.03;6.40;;;45.50;45.70;;;;;;5005272;28;20252;-74
2021/08/01 11:54:31;;;;;;;8.13;6.50;;;45.40;45.40;;;;;;5009774;28;20752;-74
2021/08/01 11:57:05;;;;;;;5.53;5.30;;;45.40;45.90;;;;;;5004432;28;20181;-74
2021/08/01 11:59:32;;;;;;;7.28;6.18;;;45.50;43.20;;;;;;5010064;28;20180;-74
2021/08/01 12:01:59;;;;;;;8.05;6.18;;;45.40;44.20;;;;;;5003922;28;20180;-74
2021/08/01 12:04:25;;;;;;;6.90;5.65;;;45.30;43.20;;;;;;5008084;28;20200;-74
2021/08/01 12:06:52;;;;;;;5.65;5.35;;;45.10;42.80;;;;;;5008776;28;20265;-74
2021/08/01 12:09:39;;;;;;;6.13;5.63;;;45.10;44.20;;;;;;4998704;28;20181;-74
2021/08/01 12:12:08;;;;;;;5.32;5.13;;;45.10;43.30;;;;;;4995190;28;20184;-74
2021/08/01 12:14:38;;;;;;;6.80;6.00;;;45.00;44.20;;;;;;4993918;28;20204;-74
2021/08/01 12:17:11;;;;;;;5.82;5.25;;;45.10;43.60;;;;;;5001258;28;20258;-74
2021/08/01 12:19:42;;;;;;;5.07;4.75;;;45.10;41.30;;;;;;5003510;28;20180;-74
2021/08/01 12:22:16;;;;;;;5.40;5.10;;;45.20;43.60;;;;;;5001409;28;20914;-74
2021/08/01 12:24:56;;;;;;;4.85;4.47;;;45.10;41.00;;;;;;5007006;28;20199;-74
2021/08/01 12:27:30;;;;;;;6.65;5.57;;;45.00;43.10;;;;;;4991283;28;20204;-73
2021/08/01 12:30:07;;;;;;;8.60;5.13;;;45.30;43.80;;;;;;5003152;28;20188;-73
2021/08/01 12:32:44;;;;;;;5.35;4.97;;;45.70;42.50;;;;;;4991702;28;20207;-75
2021/08/01 12:35:29;;;;;;;4.93;4.57;;;46.10;43.00;;;;;;4993876;28;20211;-75
2021/08/01 12:38:02;;;;;;;5.45;5.05;;;46.20;41.60;;;;;;4996518;28;20417;-75
2021/08/01 12:40:40;;;;;;;4.75;4.45;;;46.30;43.60;;;;;;5000170;28;20177;-74
2021/08/01 12:43:10;;;;;;;6.53;5.18;;;46.40;40.50;;;;;;4992111;28;20188;-75
2021/08/01 12:45:35;;;;;;;6.20;5.13;;;46.10;41.40;;;;;;5001536;28;20608;-74
2021/08/01 12:48:03;;;;;;;5.30;5.00;;;45.80;42.10;;;;;;4998893;28;20177;-74
2021/08/01 12:50:30;;;;;;;6.55;5.13;;;45.50;40.90;;;;;;5000347;28;20197;-75
2021/08/01 12:52:56;;;;;;;5.13;4.80;;;45.50;42.90;;;;;;5007803;28;20197;-75
2021/08/01 12:55:24;;;;;;;4.78;4.53;;;45.70;43.30;;;;;;5002550;28;20211;-74
2021/08/01 12:58:16;;;;;;;5.85;5.07;;;46.00;42.90;;;;;;5000185;28;20189;-74